createdAt,value
2022-11-23T00:00:55.414Z,10.77
2022-11-23T00:03:25.402Z,10.60
2022-11-23T00:05:54.894Z,10.70
2022-11-23T00:08:25.315Z,14.57
2022-11-23T00:10:55.316Z,12.32
2022-11-23T00:13:25.409Z,15.05
2022-11-23T00:15:54.993Z,10.02
2022-11-23T00:18:24.555Z,14.27
2022-11-23T00:20:54.524Z,14.52
2022-11-23T00:23:24.576Z,17.67
2022-11-23T00:25:54.202Z,11.93
2022-11-23T00:28:23.849Z,9.25
2022-11-23T00:30:53.447Z,14.18
2022-11-23T00:33:23.411Z,11.95
2022-11-23T00:36:03.228Z,16.52
2022-11-23T00:38:33.701Z,12.55
2022-11-23T00:41:04.979Z,16.33
2022-11-23T00:43:35.872Z,17.10
2022-11-23T00:46:15.419Z,19.75
2022-11-23T00:48:45.793Z,12.77
2022-11-23T00:51:16.418Z,22.35
2022-11-23T00:53:45.957Z,17.70
2022-11-23T00:56:15.476Z,19.42
2022-11-23T00:58:45.759Z,15.85
2022-11-23T01:01:16.421Z,22.95
2022-11-23T01:03:47.664Z,14.73
2022-11-23T01:06:18.312Z,15.32
2022-11-23T01:08:54.205Z,16.95
2022-11-23T01:11:24.869Z,21.95
2022-11-23T01:13:56.472Z,18.95
2022-11-23T01:16:29.655Z,26.83
2022-11-23T01:19:00.331Z,14.40
2022-11-23T01:21:31.081Z,20.15
2022-11-23T01:24:02.013Z,19.45
2022-11-23T01:26:31.922Z,17.02
2022-11-23T01:29:02.015Z,21.17
2022-11-23T01:31:31.603Z,24.75
2022-11-23T01:34:02.702Z,19.83
2022-11-23T01:36:33.187Z,25.17
2022-11-23T01:39:02.806Z,22.20
2022-11-23T01:41:40.978Z,27.35
2022-11-23T01:44:29.054Z,19.42
2022-11-23T01:47:08.339Z,17.83
2022-11-23T01:49:48.570Z,24.13
2022-11-23T01:52:20.532Z,19.60
2022-11-23T01:54:50.753Z,21.70
2022-11-23T01:57:21.590Z,19.35
2022-11-23T01:59:51.484Z,20.13
2022-11-23T02:02:21.542Z,15.45
2022-11-23T02:04:55.231Z,24.63
2022-11-23T02:07:24.891Z,23.30
2022-11-23T02:09:54.886Z,15.52
2022-11-23T02:12:24.937Z,18.63
2022-11-23T02:14:54.325Z,25.10
2022-11-23T02:17:23.777Z,17.35
2022-11-23T02:19:53.613Z,23.52
2022-11-23T02:22:31.600Z,13.23
2022-11-23T02:25:01.014Z,13.05
2022-11-23T02:27:30.890Z,14.63
2022-11-23T02:30:00.813Z,17.67
2022-11-23T02:32:33.041Z,11.27
2022-11-23T02:35:04.613Z,14.23
2022-11-23T02:37:34.408Z,18.63
2022-11-23T02:40:04.405Z,16.20
2022-11-23T02:42:36.883Z,11.23
2022-11-23T02:45:09.605Z,14.30
2022-11-23T02:47:39.662Z,19.48
2022-11-23T02:52:58.205Z,22.02
2022-11-23T02:55:27.749Z,14.00
2022-11-23T02:57:57.150Z,14.85
2022-11-23T03:00:26.643Z,27.00
2022-11-23T03:02:56.559Z,21.27
2022-11-23T03:05:26.161Z,14.05
2022-11-23T03:07:56.009Z,27.75
2022-11-23T03:10:25.998Z,24.85
2022-11-23T03:12:57.814Z,18.48
2022-11-23T03:15:30.429Z,25.00
2022-11-23T03:18:01.489Z,20.65
2022-11-23T03:20:32.005Z,21.10
2022-11-23T03:23:01.568Z,18.25
2022-11-23T03:25:31.499Z,18.08
2022-11-23T03:28:01.404Z,17.38
2022-11-23T03:30:33.103Z,17.77
2022-11-23T03:33:03.556Z,24.15
2022-11-23T03:35:33.765Z,43.90
2022-11-23T03:38:20.793Z,43.35
2022-11-23T03:40:51.541Z,44.70
2022-11-23T03:43:31.018Z,28.90
2022-11-23T03:46:00.794Z,35.28
2022-11-23T03:48:30.531Z,39.83
2022-11-23T03:51:00.913Z,22.25
2022-11-23T03:53:31.111Z,35.72
2022-11-23T03:56:02.267Z,31.98
2022-11-23T03:58:36.475Z,24.30
2022-11-23T04:01:09.714Z,27.70
2022-11-23T04:03:40.806Z,26.35
2022-11-23T04:06:17.945Z,23.20
2022-11-23T04:09:22.949Z,26.52
2022-11-23T04:12:25.185Z,25.75
2022-11-23T04:14:54.702Z,25.98
2022-11-23T04:17:24.327Z,16.85
2022-11-23T04:19:53.769Z,16.15
2022-11-23T04:22:23.183Z,12.35
2022-11-23T04:24:53.074Z,20.60
2022-11-23T04:27:22.611Z,15.43
2022-11-23T04:29:52.422Z,20.40
2022-11-23T04:32:22.599Z,24.65
2022-11-23T04:34:52.201Z,14.30
2022-11-23T04:37:24.612Z,18.50
2022-11-23T04:39:55.479Z,13.43
2022-11-23T04:45:12.091Z,12.50
2022-11-23T04:47:42.676Z,10.30
2022-11-23T04:50:16.243Z,13.20
2022-11-23T04:52:50.845Z,11.25
2022-11-23T04:55:24.860Z,11.57
2022-11-23T04:58:03.366Z,15.43
2022-11-23T05:00:37.043Z,17.33
2022-11-23T05:03:07.823Z,10.75
2022-11-23T05:05:39.867Z,20.85
2022-11-23T05:08:10.316Z,17.02
2022-11-23T05:11:02.524Z,14.80
2022-11-23T05:13:32.402Z,11.68
2022-11-23T05:16:01.884Z,11.02
2022-11-23T05:18:32.063Z,11.43
2022-11-23T05:21:01.946Z,8.82
2022-11-23T05:23:32.626Z,12.93
2022-11-23T05:26:02.710Z,14.07
2022-11-23T05:28:41.744Z,18.55
2022-11-23T05:31:15.757Z,10.57
2022-11-23T05:33:47.561Z,10.43
2022-11-23T05:36:20.978Z,13.35
2022-11-23T05:38:50.700Z,10.90
2022-11-23T05:43:59.718Z,18.60
2022-11-23T05:46:31.572Z,17.58
2022-11-23T05:49:01.126Z,10.05
2022-11-23T05:51:36.794Z,16.60
2022-11-23T05:54:06.965Z,12.52
2022-11-23T05:56:58.821Z,19.83
2022-11-23T05:59:38.327Z,20.40
2022-11-23T06:02:08.940Z,9.23
2022-11-23T06:04:39.165Z,11.13
2022-11-23T06:07:12.567Z,14.15
2022-11-23T06:09:58.049Z,7.93
2022-11-23T06:12:29.270Z,15.95
2022-11-23T06:15:00.624Z,14.30
2022-11-23T06:17:31.923Z,11.52
2022-11-23T06:20:06.756Z,13.45
2022-11-23T06:22:39.038Z,10.40
2022-11-23T06:25:11.148Z,9.10
2022-11-23T06:28:14.754Z,12.82
2022-11-23T06:30:48.435Z,12.20
2022-11-23T06:33:17.999Z,10.73
2022-11-23T06:35:59.794Z,8.07
2022-11-23T06:38:34.945Z,10.70
2022-11-23T06:41:09.830Z,12.82
2022-11-23T06:43:39.405Z,12.85
2022-11-23T06:46:08.964Z,15.70
2022-11-23T06:48:45.324Z,8.60
2022-11-23T06:51:16.441Z,10.40
2022-11-23T06:53:47.264Z,11.43
2022-11-23T06:56:17.849Z,9.95
2022-11-23T06:58:48.143Z,9.30
2022-11-23T07:01:23.265Z,9.90
2022-11-23T07:04:04.227Z,9.95
2022-11-23T07:06:43.873Z,11.30
2022-11-23T07:09:23.985Z,7.57
2022-11-23T07:12:16.740Z,8.93
2022-11-23T07:14:46.733Z,11.90
2022-11-23T07:17:17.659Z,16.42
2022-11-23T07:19:48.867Z,16.17
2022-11-23T07:22:18.867Z,12.57
2022-11-23T07:24:48.378Z,10.45
2022-11-23T07:27:21.273Z,17.08
2022-11-23T07:29:51.182Z,13.38
2022-11-23T07:32:21.719Z,15.80
2022-11-23T07:34:51.757Z,14.65
2022-11-23T07:37:22.279Z,17.67
2022-11-23T07:39:58.250Z,9.98
2022-11-23T07:42:36.797Z,11.35
2022-11-23T07:45:10.978Z,15.93
2022-11-23T07:47:43.372Z,10.50
2022-11-23T07:50:13.670Z,11.40
2022-11-23T07:52:43.995Z,10.02
2022-11-23T07:55:13.665Z,11.95
2022-11-23T07:57:44.131Z,12.15
2022-11-23T08:00:13.943Z,9.93
2022-11-23T08:03:04.286Z,9.95
2022-11-23T08:05:34.527Z,15.63
2022-11-23T08:08:04.722Z,8.60
2022-11-23T08:10:36.642Z,13.40
2022-11-23T08:13:10.307Z,16.40
2022-11-23T08:15:40.286Z,16.58
2022-11-23T08:18:10.238Z,14.13
2022-11-23T08:20:40.447Z,16.98
2022-11-23T08:23:11.218Z,13.27
2022-11-23T08:25:41.034Z,20.42
2022-11-23T08:28:10.591Z,12.40
2022-11-23T08:30:40.652Z,14.23
2022-11-23T08:33:11.170Z,12.90
2022-11-23T08:35:41.947Z,11.57
2022-11-23T08:38:12.229Z,13.90
2022-11-23T08:40:42.244Z,15.32
2022-11-23T08:43:12.236Z,18.10
2022-11-23T08:45:42.227Z,11.10
2022-11-23T08:48:11.821Z,10.43
2022-11-23T08:50:42.391Z,20.60
2022-11-23T08:53:12.133Z,23.50
2022-11-23T08:55:41.568Z,11.93
2022-11-23T08:58:13.511Z,11.23
2022-11-23T09:00:43.705Z,15.63
2022-11-23T09:03:13.215Z,18.13
2022-11-23T09:05:43.060Z,13.18
2022-11-23T09:08:12.831Z,20.80
2022-11-23T09:10:42.766Z,18.35
2022-11-23T09:13:12.733Z,15.60
2022-11-23T09:15:42.697Z,14.18
2022-11-23T09:18:12.366Z,22.33
2022-11-23T09:20:41.887Z,23.90
2022-11-23T09:23:14.390Z,16.65
2022-11-23T09:25:48.622Z,19.02
2022-11-23T09:28:20.886Z,13.65
2022-11-23T09:30:50.552Z,14.77
2022-11-23T09:33:19.932Z,13.75
2022-11-23T09:35:49.459Z,22.83
2022-11-23T09:38:18.927Z,16.65
2022-11-23T09:40:51.378Z,13.88
2022-11-23T09:43:32.336Z,20.67
2022-11-23T09:46:05.042Z,22.60
2022-11-23T09:48:42.018Z,16.23
2022-11-23T09:51:25.433Z,23.75
2022-11-23T09:54:04.363Z,18.10
2022-11-23T09:56:37.154Z,14.85
2022-11-23T09:59:25.056Z,12.65
2022-11-23T10:01:55.000Z,20.25
2022-11-23T10:04:25.425Z,20.45
2022-11-23T10:06:56.615Z,17.35
2022-11-23T10:09:35.696Z,17.08
2022-11-23T10:12:13.370Z,24.60
2022-11-23T10:15:01.549Z,27.40
2022-11-23T10:17:42.972Z,28.98
2022-11-23T10:20:15.687Z,25.48
2022-11-23T10:22:45.124Z,29.60
2022-11-23T10:25:24.215Z,27.92
2022-11-23T10:27:55.733Z,33.58
2022-11-23T10:30:25.242Z,28.05
2022-11-23T10:32:58.285Z,25.52
2022-11-23T10:35:32.571Z,26.50
2022-11-23T10:38:15.187Z,23.90
2022-11-23T10:40:59.867Z,17.13
2022-11-23T10:43:30.863Z,25.02
2022-11-23T10:46:19.123Z,21.92
2022-11-23T10:48:48.867Z,22.02
2022-11-23T10:51:34.495Z,18.35
2022-11-23T10:54:05.812Z,18.58
2022-11-23T10:56:35.808Z,20.58
2022-11-23T10:59:05.376Z,18.88
2022-11-23T11:01:34.827Z,16.80
2022-11-23T11:04:05.479Z,14.68
2022-11-23T11:06:37.239Z,21.98
2022-11-23T11:09:12.214Z,12.40
2022-11-23T11:11:44.598Z,21.23
2022-11-23T11:14:18.435Z,13.15
2022-11-23T11:16:52.130Z,13.68
2022-11-23T11:19:34.959Z,13.80
2022-11-23T11:22:06.023Z,14.07
2022-11-23T11:24:38.102Z,11.27
2022-11-23T11:27:34.186Z,10.77
2022-11-23T11:30:08.172Z,14.57
2022-11-23T11:32:49.957Z,14.38
2022-11-23T11:35:29.373Z,11.18
2022-11-23T11:38:19.030Z,19.85
2022-11-23T11:40:51.672Z,11.38
2022-11-23T11:43:36.323Z,18.83
2022-11-23T11:46:31.822Z,32.15
2022-11-23T11:49:02.841Z,27.95
2022-11-23T11:51:34.173Z,32.22
2022-11-23T11:54:03.570Z,31.75
2022-11-23T11:56:38.766Z,33.50
2022-11-23T11:59:12.170Z,20.38
2022-11-23T12:01:44.954Z,31.02
2022-11-23T12:04:17.561Z,32.05
2022-11-23T12:07:06.153Z,24.83
2022-11-23T12:09:40.837Z,18.77
2022-11-23T12:12:14.077Z,20.98
2022-11-23T12:14:43.491Z,23.23
2022-11-23T12:20:22.174Z,19.30
2022-11-23T12:22:55.469Z,18.30
2022-11-23T12:25:34.148Z,22.00
2022-11-23T12:28:19.462Z,18.15
2022-11-23T12:31:07.467Z,19.85
2022-11-23T12:33:49.499Z,31.55
2022-11-23T12:36:31.031Z,17.80
2022-11-23T12:39:18.944Z,26.95
2022-11-23T12:41:54.411Z,28.45
2022-11-23T12:44:27.337Z,22.58
2022-11-23T12:47:11.867Z,22.77
2022-11-23T12:49:44.828Z,24.38
2022-11-23T12:52:21.000Z,23.73
2022-11-23T12:54:58.705Z,23.57
2022-11-23T12:57:35.778Z,23.65
2022-11-23T13:00:09.701Z,22.90
2022-11-23T13:02:45.229Z,18.38
2022-11-23T13:05:25.102Z,30.75
2022-11-23T13:08:13.144Z,32.63
2022-11-23T13:11:02.882Z,32.70
2022-11-23T13:14:00.302Z,30.73
2022-11-23T13:16:48.185Z,28.90
2022-11-23T13:19:27.565Z,33.60
2022-11-23T13:22:02.460Z,45.28
2022-11-23T13:24:33.944Z,24.25
2022-11-23T13:27:16.172Z,30.65
2022-11-23T13:29:49.308Z,25.60
2022-11-23T13:32:47.218Z,26.92
2022-11-23T13:35:17.230Z,28.88
2022-11-23T13:38:00.940Z,27.13
2022-11-23T13:40:36.741Z,31.73
2022-11-23T13:43:06.131Z,33.08
2022-11-23T13:45:37.402Z,30.08
2022-11-23T13:48:07.669Z,40.33
2022-11-23T13:50:41.166Z,29.73
2022-11-23T13:53:24.544Z,26.13
2022-11-23T13:55:54.923Z,30.58
2022-11-23T13:58:25.366Z,27.98
2022-11-23T14:00:55.099Z,33.17
2022-11-23T14:03:43.717Z,39.17
2022-11-23T14:06:13.874Z,32.15
2022-11-23T14:08:43.392Z,33.80
2022-11-23T14:11:14.378Z,29.95
2022-11-23T14:13:48.094Z,37.83
2022-11-23T14:16:19.147Z,30.70
2022-11-23T14:19:12.603Z,34.38
2022-11-23T14:21:42.507Z,38.05
2022-11-23T14:24:30.915Z,30.30
2022-11-23T14:27:39.507Z,30.00
2022-11-23T14:30:15.998Z,30.33
2022-11-23T14:33:03.557Z,32.15
2022-11-23T14:35:48.943Z,33.08
2022-11-23T14:38:33.592Z,45.70
2022-11-23T14:41:03.424Z,34.97
2022-11-23T14:43:32.832Z,34.13
2022-11-23T14:46:07.990Z,38.63
2022-11-23T14:48:38.200Z,42.33
2022-11-23T14:51:08.488Z,29.30
2022-11-23T14:53:46.633Z,35.22
2022-11-23T14:56:26.167Z,27.20
2022-11-23T14:58:56.195Z,25.95
2022-11-23T15:01:26.017Z,29.65
2022-11-23T15:04:02.785Z,25.40
2022-11-23T15:06:32.994Z,25.80
2022-11-23T15:09:02.407Z,30.33
2022-11-23T15:11:32.256Z,28.70
2022-11-23T15:14:05.766Z,43.28
2022-11-23T15:16:43.600Z,31.92
2022-11-23T15:19:29.955Z,28.48
2022-11-23T15:22:00.100Z,29.83
2022-11-23T15:24:29.472Z,29.92
2022-11-23T15:27:00.638Z,22.55
2022-11-23T15:29:38.636Z,43.83
2022-11-23T15:32:33.797Z,42.22
2022-11-23T15:35:08.804Z,48.15
2022-11-23T15:37:40.193Z,39.67
2022-11-23T15:40:14.063Z,44.92
2022-11-23T15:42:44.825Z,48.25
2022-11-23T15:45:33.188Z,35.83
2022-11-23T15:48:04.189Z,53.45
2022-11-23T15:50:34.406Z,42.03
2022-11-23T15:53:04.947Z,45.70
2022-11-23T15:55:38.899Z,36.90
2022-11-23T15:58:09.131Z,37.97
2022-11-23T16:00:39.105Z,38.55
2022-11-23T16:03:26.727Z,34.55
2022-11-23T16:06:15.678Z,31.70
2022-11-23T16:08:46.090Z,35.35
2022-11-23T16:11:22.427Z,32.78
2022-11-23T16:13:52.582Z,29.50
2022-11-23T16:16:23.475Z,35.75
2022-11-23T16:18:57.333Z,24.13
2022-11-23T16:21:27.337Z,37.92
2022-11-23T16:23:57.444Z,34.05
2022-11-23T16:26:33.783Z,49.30
2022-11-23T16:29:05.274Z,40.83
2022-11-23T16:31:40.815Z,42.92
2022-11-23T16:34:19.746Z,35.30
2022-11-23T16:36:49.407Z,46.58
2022-11-23T16:39:18.804Z,40.90
2022-11-23T16:41:48.363Z,33.45
2022-11-23T16:44:18.308Z,42.40
2022-11-23T16:46:48.596Z,46.10
2022-11-23T16:49:22.382Z,46.05
2022-11-23T16:51:57.347Z,28.02
2022-11-23T16:54:27.326Z,37.67
2022-11-23T16:56:56.794Z,48.85
2022-11-23T16:59:26.618Z,33.35
2022-11-23T17:01:57.718Z,35.40
2022-11-23T17:04:27.928Z,36.65
2022-11-23T17:06:58.098Z,27.35
2022-11-23T17:09:28.132Z,34.38
2022-11-23T17:11:58.283Z,50.05
2022-11-23T17:14:29.823Z,37.30
2022-11-23T17:17:03.105Z,44.25
2022-11-23T17:19:33.144Z,49.67
2022-11-23T17:22:03.205Z,42.95
2022-11-23T17:24:32.946Z,42.88
2022-11-23T17:27:03.029Z,31.95
2022-11-23T17:29:35.582Z,46.78
2022-11-23T17:32:08.069Z,41.05
2022-11-23T17:34:37.721Z,49.80
2022-11-23T17:37:07.346Z,42.08
2022-11-23T17:39:37.021Z,45.00
2022-11-23T17:42:06.456Z,42.42
2022-11-23T17:44:36.320Z,44.60
2022-11-23T17:47:05.866Z,52.28
2022-11-23T17:49:35.697Z,51.53
2022-11-23T17:52:05.995Z,48.00
2022-11-23T17:54:36.255Z,42.38
2022-11-23T17:57:05.823Z,49.63
2022-11-23T17:59:38.882Z,19.45
2022-11-23T18:02:09.207Z,30.90
2022-11-23T18:04:39.766Z,31.27
2022-11-23T18:07:09.377Z,25.77
2022-11-23T18:09:39.326Z,26.58
2022-11-23T18:12:08.853Z,22.88
2022-11-23T18:14:38.366Z,34.50
2022-11-23T18:17:07.786Z,27.20
2022-11-23T18:19:38.097Z,35.13
2022-11-23T18:22:08.249Z,36.03
2022-11-23T18:24:37.823Z,40.00
2022-11-23T18:27:07.767Z,22.75
2022-11-23T18:29:38.475Z,21.70
2022-11-23T18:32:09.756Z,27.92
2022-11-23T18:34:39.856Z,33.22
2022-11-23T18:37:09.975Z,21.05
2022-11-23T18:39:39.887Z,25.27
2022-11-23T18:42:10.059Z,31.35
2022-11-23T18:44:39.751Z,31.27
2022-11-23T18:47:09.328Z,30.95
2022-11-23T18:49:38.710Z,33.75
2022-11-23T18:52:09.770Z,35.50
2022-11-23T18:54:39.831Z,46.65
2022-11-23T18:57:09.837Z,26.20
2022-11-23T18:59:57.600Z,28.38
2022-11-23T19:02:28.670Z,26.73
2022-11-23T19:04:58.099Z,27.88
2022-11-23T19:07:28.433Z,32.85
2022-11-23T19:09:57.980Z,17.52
2022-11-23T19:12:27.794Z,28.33
2022-11-23T19:14:57.589Z,14.45
2022-11-23T19:17:27.085Z,18.80
2022-11-23T19:19:57.355Z,22.77
2022-11-23T19:22:27.259Z,19.33
2022-11-23T19:24:56.995Z,16.48
2022-11-23T19:27:26.454Z,27.00
2022-11-23T19:29:56.340Z,20.45
2022-11-23T19:32:25.837Z,28.45
2022-11-23T19:34:56.490Z,18.75
2022-11-23T19:37:26.048Z,14.27
2022-11-23T19:39:55.993Z,10.18
2022-11-23T19:42:25.981Z,18.23
2022-11-23T19:44:55.858Z,18.75
2022-11-23T19:47:25.438Z,14.35
2022-11-23T19:49:55.297Z,13.90
2022-11-23T19:52:37.140Z,11.73
2022-11-23T19:55:14.918Z,19.83
2022-11-23T19:57:44.935Z,16.30
2022-11-23T20:00:15.114Z,17.40
2022-11-23T20:02:45.577Z,18.42
2022-11-23T20:05:16.597Z,15.73
2022-11-23T20:07:46.483Z,26.67
2022-11-23T20:10:18.443Z,16.40
2022-11-23T20:12:48.463Z,19.23
2022-11-23T20:15:18.679Z,17.95
2022-11-23T20:17:49.996Z,17.30
2022-11-23T20:20:19.650Z,17.25
2022-11-23T20:22:50.172Z,17.77
2022-11-23T20:25:20.295Z,25.02
2022-11-23T20:27:49.847Z,22.67
2022-11-23T20:30:20.279Z,21.40
2022-11-23T20:32:51.955Z,17.33
2022-11-23T20:35:22.969Z,14.20
2022-11-23T20:37:52.960Z,24.15
2022-11-23T20:40:23.130Z,11.25
2022-11-23T20:42:53.182Z,25.70
2022-11-23T20:45:22.632Z,17.73
2022-11-23T20:47:55.598Z,14.40
2022-11-23T20:50:27.566Z,10.60
2022-11-23T20:53:02.021Z,12.18
2022-11-23T20:55:33.350Z,19.90
2022-11-23T20:58:03.323Z,20.83
2022-11-23T21:00:33.573Z,17.08
2022-11-23T21:03:03.868Z,16.92
2022-11-23T21:05:36.985Z,20.17
2022-11-23T21:08:06.581Z,19.42
2022-11-23T21:10:54.664Z,19.67
2022-11-23T21:13:49.681Z,18.38
2022-11-23T21:16:22.291Z,17.88
2022-11-23T21:18:53.888Z,25.45
2022-11-23T21:21:23.757Z,15.55
2022-11-23T21:23:53.640Z,13.52
2022-11-23T21:26:23.221Z,17.88
2022-11-23T21:28:52.747Z,13.95
2022-11-23T21:31:22.307Z,24.58
2022-11-23T21:33:53.782Z,14.50
2022-11-23T21:36:24.348Z,16.27
2022-11-23T21:38:55.288Z,22.92
2022-11-23T21:41:25.539Z,8.38
2022-11-23T21:43:57.978Z,16.85
2022-11-23T21:46:28.223Z,11.88
2022-11-23T21:48:58.512Z,10.70
2022-11-23T21:51:29.934Z,21.20
2022-11-23T21:54:00.736Z,10.55
2022-11-23T21:56:31.048Z,17.95
2022-11-23T21:59:01.464Z,19.00
2022-11-23T22:01:32.830Z,20.55
2022-11-23T22:04:04.449Z,15.13
2022-11-23T22:06:35.394Z,14.13
2022-11-23T22:09:07.598Z,15.93
2022-11-23T22:11:38.093Z,17.50
2022-11-23T22:14:09.306Z,24.30
2022-11-23T22:16:41.283Z,20.08
2022-11-23T22:19:16.325Z,18.13
2022-11-23T22:21:46.979Z,18.55
2022-11-23T22:24:18.055Z,16.10
2022-11-23T22:26:48.999Z,19.05
2022-11-23T22:29:20.391Z,24.27
2022-11-23T22:31:51.473Z,21.88
2022-11-23T22:34:21.980Z,22.90
2022-11-23T22:36:52.818Z,22.52
2022-11-23T22:39:23.664Z,32.85
2022-11-23T22:41:53.855Z,27.63
2022-11-23T22:44:23.993Z,33.97
2022-11-23T22:46:54.678Z,28.05
2022-11-23T22:49:25.124Z,18.40
2022-11-23T22:51:55.227Z,19.02
2022-11-23T22:54:25.403Z,15.02
2022-11-23T22:56:55.479Z,19.77
2022-11-23T22:59:25.964Z,20.27
2022-11-23T23:01:56.479Z,15.73
2022-11-23T23:04:27.357Z,9.00
2022-11-23T23:06:57.432Z,6.40
2022-11-23T23:09:28.256Z,9.10
2022-11-23T23:11:58.723Z,9.98
2022-11-23T23:14:29.005Z,17.75
2022-11-23T23:17:01.069Z,13.05
2022-11-23T23:19:32.066Z,8.68
2022-11-23T23:22:02.541Z,15.95
2022-11-23T23:24:33.347Z,14.32
2022-11-23T23:27:03.778Z,18.48
2022-11-23T23:29:34.441Z,15.63
2022-11-23T23:32:05.167Z,22.52
2022-11-23T23:34:35.585Z,22.80
2022-11-23T23:37:05.896Z,18.48
2022-11-23T23:39:36.597Z,14.35
2022-11-23T23:42:08.776Z,19.58
2022-11-23T23:44:39.158Z,21.17
2022-11-23T23:47:09.819Z,18.35
2022-11-23T23:49:40.485Z,25.65
2022-11-23T23:52:10.687Z,15.63
2022-11-23T23:54:40.838Z,12.23
2022-11-23T23:57:10.931Z,26.73
2022-11-23T23:59:40.994Z,16.98
